KSAN/SAN METAR and TAF weather

Enter ICAO airport designator
Station Type Date Time Source
KSAN METAR 2020/01/18 15:51 UTC NOAA

KSAN 181551Z 00000KT 10SM FEW200 09/08 A3022 RMK AO2 SLP233 T00940078


Station Type Date Time Source
KSAN Decoded METAR 2020/01/18 15:51 UTC NOAA

SAN DIEGO INTERNATIONAL \LINDBERGH FLD, CA, United States (KSAN) 32-44N 117-11W 12M
Jan 18, 2020 - 10:51 AM EST / 2020.01.18 1551 UTC
Wind: Calm:0
Visibility: 10 mile(s):0
Sky conditions: mostly clear
Temperature: 48.9 F (9.4 C)
Dew Point: 46.0 F (7.8 C)
Relative Humidity: 89%
Pressure (altimeter): 30.22 in. Hg (1023 hPa)
ob: KSAN 181551Z 00000KT 10SM FEW200 09/08 A3022 RMK AO2 SLP233 T00940078
cycle: 16

Station Type Date Time Source
KSAN TAF 2020/01/18 15:58 UTC NOAA

TAF
AMD KSAN 181456Z 1815/1918 VRB04KT P6SM FEW200
FM182000 31008KT P6SM SCT250
FM190200 VRB04KT P6SM BKN250

Example: see airport list